| time (UTC) | temp F | wind direction | speed MPH | gust MPH | rain 1hr in | rain 24hr in | rain mn in | humidity % | barometer mb |
| 20260507064505 | 64 | 360 | 0.0 | 0.0 | 0.00 | 0.00 | 0.01 | 61 | 1012.5 |
| 20260507063106 | 63 | 360 | 0.0 | 0.0 | 0.00 | 0.00 | 0.01 | 61 | 1012.3 |
| 20260507061556 | 61 | 360 | 0.0 | 0.0 | 0.00 | 0.00 | 0.01 | 69 | 1012.3 |
| 20260507060052 | 60 | 360 | 0.0 | 0.0 | 0.00 | 0.00 | 0.01 | 74 | 1012.2 |
| 20260507054548 | 57 | 360 | 0.0 | 0.0 | 0.00 | 0.00 | 0.01 | 82 | 1012.0 |
| 20260507053043 | 54 | 360 | 0.0 | 0.0 | 0.00 | 0.00 | 0.01 | 90 | 1011.8 |
| 20260507051541 | 51 | 360 | 0.0 | 0.0 | 0.00 | 0.00 | 0.01 | 91 | 1011.6 |
| 20260507050038 | 50 | 360 | 0.0 | 0.0 | 0.00 | 0.00 | 0.01 | 91 | 1011.4 |
| 20260507044536 | 50 | 360 | 0.0 | 0.0 | 0.00 | 0.00 | 0.00 | 90 | 1011.2 |
| 20260507043034 | 50 | 360 | 0.0 | 0.0 | 0.00 | 0.00 | 0.00 | 90 | 1011.2 |
| 20260507041531 | 50 | 360 | 0.0 | 0.0 | 0.00 | 0.00 | 0.00 | 89 | 1011.1 |
| 20260507040030 | 50 | 360 | 0.0 | 0.0 | 0.00 | 0.00 | 0.00 | 89 | 1010.8 |
| 20260507034529 | 50 | 360 | 0.0 | 0.0 | 0.00 | 0.00 | 0.00 | 88 | 1010.8 |
| 20260507033030 | 50 | 360 | 0.0 | 0.0 | 0.00 | 0.00 | 0.00 | 87 | 1010.6 |
| 20260507031526 | 50 | 360 | 0.0 | 0.0 | 0.00 | 0.00 | 0.00 | 86 | 1010.6 |
| 20260507030025 | 51 | 360 | 0.0 | 0.0 | 0.00 | 0.00 | 0.00 | 86 | 1010.6 |
| 20260507024523 | 51 | 360 | 0.0 | 0.0 | 0.00 | 0.00 | 0.00 | 85 | 1010.6 |
| 20260507023021 | 51 | 360 | 0.0 | 0.0 | 0.00 | 0.00 | 0.00 | 84 | 1010.5 |
| 20260507021520 | 52 | 360 | 0.0 | 0.0 | 0.00 | 0.00 | 0.00 | 83 | 1010.7 |
| 20260507020018 | 52 | 360 | 0.0 | 0.0 | 0.00 | 0.00 | 0.00 | 83 | 1010.6 |
| 20260507014526 | 53 | 360 | 0.0 | 0.0 | 0.00 | 0.00 | 0.00 | 83 | 1010.5 |
| 20260507013030 | 53 | 360 | 0.0 | 0.0 | 0.00 | 0.00 | 0.00 | 82 | 1010.4 |
| 20260507011514 | 54 | 360 | 0.0 | 0.0 | 0.00 | 0.00 | 0.00 | 81 | 1010.4 |
| 20260507010016 | 54 | 360 | 0.0 | 0.0 | 0.00 | 0.00 | 0.00 | 80 | 1010.2 |
| 20260507004509 | 54 | 360 | 0.0 | 0.0 | 0.00 | 0.00 | 0.00 | 80 | 1010.3 |
| 20260507003008 | 54 | 360 | 0.0 | 0.0 | 0.00 | 0.00 | 0.00 | 78 | 1010.3 |
| 20260507001510 | 54 | 360 | 0.0 | 0.0 | 0.00 | 0.00 | 0.00 | 78 | 1010.4 |
| 20260507000007 | 54 | 360 | 0.0 | 0.0 | 0.00 | 0.00 | 0.00 | 77 | 1010.4 |
| 20260506234506 | 54 | 360 | 0.0 | 0.0 | 0.00 | 0.00 | 0.00 | 77 | 1010.4 |
| 20260506233008 | 54 | 360 | 0.0 | 0.0 | 0.00 | 0.00 | 0.00 | 77 | 1010.4 |
| 20260506231504 | 55 | 360 | 0.0 | 0.0 | 0.00 | 0.00 | 0.00 | 76 | 1010.4 |
| 20260506230003 | 55 | 360 | 0.0 | 0.0 | 0.00 | 0.00 | 0.00 | 76 | 1010.4 |
| 20260506224502 | 56 | 360 | 0.0 | 0.0 | 0.00 | 0.00 | 0.00 | 76 | 1010.4 |
| 20260506223101 | 56 | 360 | 0.0 | 0.0 | 0.00 | 0.00 | 0.00 | 77 | 1010.4 |
| 20260506221611 | 56 | 360 | 0.0 | 0.0 | 0.00 | 0.00 | 0.00 | 76 | 1010.5 |
| 20260506220056 | 57 | 360 | 0.0 | 0.0 | 0.00 | 0.00 | 0.00 | 74 | 1010.5 |
| 20260506214557 | 58 | 360 | 0.0 | 0.0 | 0.00 | 0.00 | 0.49 | 73 | 1010.4 |
| 20260506213112 | 58 | 360 | 1.0 | 0.0 | 0.00 | 0.00 | 0.49 | 72 | 1010.3 |
| 20260506211553 | 58 | 360 | 0.0 | 0.0 | 0.00 | 0.00 | 0.49 | 72 | 1010.0 |
| 20260506210054 | 59 | 360 | 1.0 | 0.0 | 0.00 | 0.00 | 0.49 | 72 | 1009.8 |
| 20260506204553 | 60 | 360 | 0.0 | 0.0 | 0.00 | 0.00 | 0.49 | 72 | 1009.8 |
| 20260506203053 | 60 | 360 | 0.0 | 0.0 | 0.00 | 0.00 | 0.49 | 72 | 1009.6 |
| 20260506201553 | 60 | 360 | 1.0 | 0.0 | 0.00 | 0.00 | 0.49 | 72 | 1009.7 |
| 20260506200052 | 61 | 360 | 1.0 | 0.0 | 0.00 | 0.00 | 0.49 | 74 | 1009.5 |
| 20260506194551 | 61 | 360 | 1.0 | 0.0 | 0.00 | 0.00 | 0.49 | 75 | 1009.1 |
| 20260506193050 | 61 | 360 | 1.0 | 0.0 | 0.00 | 0.00 | 0.49 | 75 | 1009.1 |
| 20260506191550 | 62 | 360 | 0.0 | 0.0 | 0.00 | 0.00 | 0.49 | 75 | 1008.8 |
| 20260506190051 | 62 | 360 | 1.0 | 0.0 | 0.00 | 0.00 | 0.48 | 75 | 1008.7 |
| 20260506184552 | 62 | 360 | 1.0 | 0.0 | 0.00 | 0.00 | 0.48 | 77 | 1008.3 |
| 20260506183056 | 62 | 360 | 0.0 | 0.0 | 0.00 | 0.00 | 0.48 | 77 | 1008.4 |
| 20260506181612 | 63 | 360 | 0.0 | 0.0 | 0.00 | 0.00 | 0.48 | 76 | 1008.3 |
| 20260506180048 | 63 | 360 | 1.0 | 0.0 | 0.00 | 0.00 | 0.48 | 75 | 1008.1 |
| 20260506174547 | 63 | 360 | 1.0 | 0.0 | 0.00 | 0.00 | 0.48 | 76 | 1007.9 |
| 20260506173056 | 64 | 360 | 1.0 | 0.0 | 0.00 | 0.00 | 0.48 | 76 | 1007.8 |
| 20260506171547 | 64 | 360 | 1.0 | 0.0 | 0.00 | 0.00 | 0.48 | 76 | 1007.7 |
| 20260506170049 | 65 | 360 | 1.0 | 0.0 | 0.00 | 0.00 | 0.48 | 76 | 1007.6 |
| 20260506164548 | 65 | 360 | 1.0 | 0.0 | 0.00 | 0.00 | 0.48 | 76 | 1007.6 |
| 20260506163046 | 65 | 360 | 0.0 | 0.0 | 0.00 | 0.00 | 0.48 | 76 | 1007.6 |
| 20260506161547 | 65 | 360 | 1.0 | 0.0 | 0.00 | 0.00 | 0.48 | 76 | 1007.7 |
| 20260506160052 | 66 | 360 | 1.0 | 0.0 | 0.00 | 0.00 | 0.48 | 75 | 1007.7 |
| 20260506154544 | 66 | 360 | 1.0 | 0.0 | 0.00 | 0.00 | 0.47 | 74 | 1007.7 |
| 20260506153105 | 66 | 360 | 1.0 | 0.0 | 0.00 | 0.00 | 0.47 | 75 | 1007.7 |
| 20260506151545 | 66 | 360 | 1.0 | 0.0 | 0.00 | 0.00 | 0.47 | 74 | 1007.6 |
| 20260506150049 | 66 | 360 | 1.0 | 0.0 | 0.00 | 0.00 | 0.47 | 75 | 1007.6 |
| 20260506144544 | 66 | 360 | 1.0 | 0.0 | 0.00 | 0.00 | 0.47 | 75 | 1007.7 |
| 20260506143040 | 66 | 360 | 1.0 | 0.0 | 0.00 | 0.00 | 0.46 | 78 | 1007.7 |
| 20260506141538 | 65 | 360 | 1.0 | 0.0 | 0.00 | 0.00 | 0.46 | 79 | 1007.8 |
| 20260506140038 | 65 | 360 | 0.0 | 0.0 | 0.00 | 0.00 | 0.46 | 81 | 1007.9 |
| 20260506134537 | 65 | 360 | 1.0 | 0.0 | 0.00 | 0.00 | 0.45 | 80 | 1008.2 |
| 20260506133035 | 65 | 360 | 1.0 | 0.0 | 0.00 | 0.00 | 0.45 | 83 | 1008.2 |
| 20260506131539 | 64 | 360 | 1.0 | 0.0 | 0.00 | 0.00 | 0.44 | 84 | 1008.4 |
| 20260506130034 | 63 | 360 | 0.0 | 0.0 | 0.00 | 0.00 | 0.44 | 86 | 1008.5 |
| 20260506124534 | 63 | 360 | 0.0 | 0.0 | 0.00 | 0.00 | 0.43 | 87 | 1008.6 |
| 20260506123033 | 64 | 360 | 0.0 | 0.0 | 0.00 | 0.00 | 0.42 | 83 | 1008.8 |
| 20260506121533 | 66 | 360 | 1.0 | 0.0 | 0.00 | 0.00 | 0.41 | 78 | 1008.7 |
| 20260506120035 | 67 | 360 | 1.0 | 0.0 | 0.00 | 0.00 | 0.41 | 75 | 1008.4 |
| 20260506114531 | 67 | 360 | 1.0 | 0.0 | 0.00 | 0.00 | 0.41 | 74 | 1008.6 |
| 20260506113038 | 67 | 360 | 1.0 | 0.0 | 0.00 | 0.00 | 0.41 | 76 | 1008.6 |
| 20260506111529 | 67 | 360 | 1.0 | 0.0 | 0.00 | 0.00 | 0.41 | 76 | 1008.8 |
| 20260506110025 | 67 | 360 | 2.0 | 0.0 | 0.00 | 0.00 | 0.41 | 81 | 1008.9 |
| 20260506104524 | 66 | 360 | 3.0 | 0.0 | 0.00 | 0.00 | 0.41 | 82 | 1009.0 |
| 20260506103017 | 64 | 360 | 2.0 | 0.0 | 0.00 | 0.00 | 0.41 | 88 | 1009.4 |
| 20260506101513 | 63 | 360 | 2.0 | 0.0 | 0.00 | 0.00 | 0.41 | 89 | 1009.3 |
| 20260506100011 | 61 | 360 | 2.0 | 0.0 | 0.00 | 0.00 | 0.41 | 90 | 1009.3 |
| 20260506094508 | 61 | 360 | 2.0 | 0.0 | 0.00 | 0.00 | 0.40 | 91 | 1009.3 |
| 20260506093005 | 60 | 360 | 2.0 | 0.0 | 0.00 | 0.00 | 0.40 | 90 | 1009.3 |
| 20260506091505 | 59 | 360 | 3.0 | 0.0 | 0.00 | 0.00 | 0.39 | 90 | 1009.4 |
| 20260506090002 | 59 | 360 | 3.0 | 0.0 | 0.00 | 0.00 | 0.39 | 91 | 1009.5 |
| 20260506084501 | 59 | 360 | 1.0 | 0.0 | 0.00 | 0.00 | 0.39 | 91 | 1009.7 |
| 20260506083100 | 58 | 360 | 1.0 | 0.0 | 0.00 | 0.00 | 0.38 | 91 | 1009.9 |
| 20260506081603 | 58 | 360 | 1.0 | 0.0 | 0.00 | 0.00 | 0.38 | 92 | 1009.5 |
| 20260506080106 | 58 | 360 | 2.0 | 0.0 | 0.00 | 0.00 | 0.37 | 92 | 1009.3 |
| 20260506073054 | 57 | 360 | 2.0 | 0.0 | 0.00 | 0.00 | 0.37 | 92 | 1009.6 |
| 20260506071602 | 57 | 360 | 2.0 | 0.0 | 0.00 | 0.00 | 0.36 | 92 | 1009.5 |